createdAt,value
2019-04-30T00:02:38.331Z,101174.73
2019-04-30T00:05:09.990Z,101171.70
2019-04-30T00:07:42.961Z,101169.95
2019-04-30T00:10:16.410Z,101172.53
2019-04-30T00:12:49.820Z,101171.70
2019-04-30T00:15:23.212Z,101166.87
2019-04-30T00:17:58.760Z,101169.91
2019-04-30T00:20:35.166Z,101170.81
2019-04-30T00:23:07.423Z,101166.02
2019-04-30T00:25:40.896Z,101165.14
2019-04-30T00:28:15.531Z,101162.07
2019-04-30T00:30:49.107Z,101166.04
2019-04-30T00:33:25.128Z,101162.09
2019-04-30T00:35:58.126Z,101170.80
2019-04-30T00:38:36.091Z,101166.04
2019-04-30T00:41:10.131Z,101167.35
2019-04-30T00:43:47.147Z,101173.42
2019-04-30T00:46:24.837Z,101165.14
2019-04-30T00:48:52.427Z,101167.31
2019-04-30T00:51:26.283Z,101169.06
2019-04-30T00:54:02.799Z,101170.36
2019-04-30T00:56:36.310Z,101165.58
2019-04-30T00:59:10.670Z,101164.23
2019-04-30T01:01:48.109Z,101163.34
2019-04-30T01:04:28.153Z,101162.89
2019-04-30T01:07:05.200Z,101161.60
2019-04-30T01:09:39.602Z,101153.75
2019-04-30T01:12:10.892Z,101155.47
2019-04-30T01:14:44.312Z,101153.30
2019-04-30T01:17:18.856Z,101151.52
2019-04-30T01:19:54.456Z,101144.53
2019-04-30T01:22:32.547Z,101149.78
2019-04-30T01:25:11.715Z,101154.59
2019-04-30T01:27:39.487Z,101144.98
2019-04-30T01:30:18.677Z,101145.41
2019-04-30T01:32:56.404Z,101137.98
2019-04-30T01:35:31.284Z,101139.28
2019-04-30T01:38:04.184Z,101137.98
2019-04-30T01:40:35.776Z,101139.73
2019-04-30T01:43:09.184Z,101141.49
2019-04-30T01:45:42.559Z,101143.22
2019-04-30T01:48:15.986Z,101140.16
2019-04-30T01:50:49.674Z,101144.55
2019-04-30T01:53:23.116Z,101141.49
2019-04-30T01:56:00.956Z,101148.47
2019-04-30T01:58:44.563Z,101151.09
2019-04-30T02:01:19.578Z,101145.84
2019-04-30T02:03:53.110Z,101148.03
2019-04-30T02:06:26.569Z,101149.77
2019-04-30T02:09:00.019Z,101146.70
2019-04-30T02:11:33.522Z,101151.05
2019-04-30T02:14:08.890Z,101141.45
2019-04-30T02:16:42.425Z,101144.11
2019-04-30T02:19:15.869Z,101137.11
2019-04-30T02:21:49.206Z,101139.27
2019-04-30T02:24:22.865Z,101142.80
2019-04-30T02:26:56.269Z,101141.02
2019-04-30T02:29:30.010Z,101139.72
2019-04-30T02:32:03.452Z,101135.34
2019-04-30T02:34:50.830Z,101134.90
2019-04-30T02:37:30.061Z,101136.66
2019-04-30T02:40:04.734Z,101134.48
2019-04-30T02:42:39.795Z,101130.10
2019-04-30T02:45:13.556Z,101131.84
2019-04-30T02:47:49.894Z,101134.46
2019-04-30T02:50:22.699Z,101136.66
2019-04-30T02:53:00.157Z,101133.16
2019-04-30T02:55:41.557Z,101138.41
2019-04-30T02:58:15.027Z,101142.77
2019-04-30T03:00:49.561Z,101139.73
2019-04-30T03:03:25.214Z,101137.54
2019-04-30T03:05:59.543Z,101136.66
2019-04-30T03:08:33.266Z,101137.98
2019-04-30T03:11:06.837Z,101137.11
2019-04-30T03:13:42.718Z,101139.73
2019-04-30T03:16:17.235Z,101136.67
2019-04-30T03:18:52.291Z,101135.34
2019-04-30T03:21:43.230Z,101135.34
2019-04-30T03:24:16.758Z,101129.27
2019-04-30T03:26:50.220Z,101136.25
2019-04-30T03:29:24.170Z,101125.31
2019-04-30T03:32:02.074Z,101130.59
2019-04-30T03:34:33.410Z,101129.69
2019-04-30T03:37:09.725Z,101128.83
2019-04-30T03:39:42.503Z,101118.37
2019-04-30T03:42:16.046Z,101130.20
2019-04-30T03:44:49.896Z,101130.20
2019-04-30T03:47:23.265Z,101125.41
2019-04-30T03:49:59.855Z,101132.42
2019-04-30T03:52:31.805Z,101126.30
2019-04-30T03:55:09.073Z,101130.23
2019-04-30T03:57:41.573Z,101126.73
2019-04-30T04:00:16.782Z,101132.37
2019-04-30T04:02:50.366Z,101121.00
2019-04-30T04:05:29.910Z,101128.91
2019-04-30T04:08:19.449Z,101127.14
2019-04-30T04:11:00.545Z,101130.20
2019-04-30T04:13:34.127Z,101127.18
2019-04-30T04:16:09.649Z,101130.23
2019-04-30T04:18:42.664Z,101125.87
2019-04-30T04:21:17.184Z,101130.22
2019-04-30T04:23:51.252Z,101133.70
2019-04-30T04:26:24.659Z,101135.42
2019-04-30T04:28:59.463Z,101142.44
2019-04-30T04:31:32.960Z,101139.34
2019-04-30T04:34:08.814Z,101140.66
2019-04-30T04:36:43.468Z,101142.39
2019-04-30T04:39:16.805Z,101139.80
2019-04-30T04:41:50.648Z,101140.22
2019-04-30T04:44:24.297Z,101142.36
2019-04-30T04:46:59.985Z,101146.74
2019-04-30T04:49:32.917Z,101138.91
2019-04-30T04:52:06.447Z,101142.36
2019-04-30T04:54:40.090Z,101139.72
2019-04-30T04:57:18.004Z,101140.63
2019-04-30T04:59:49.890Z,101141.05
2019-04-30T05:02:41.106Z,101140.59
2019-04-30T05:05:14.627Z,101133.58
2019-04-30T05:07:48.650Z,101144.08
2019-04-30T05:10:22.218Z,101133.54
2019-04-30T05:12:56.054Z,101140.10
2019-04-30T05:15:29.717Z,101140.53
2019-04-30T05:18:03.297Z,101138.30
2019-04-30T05:20:39.834Z,101133.03
2019-04-30T05:23:12.166Z,101133.48
2019-04-30T05:25:45.608Z,101138.69
2019-04-30T05:28:19.260Z,101143.05
2019-04-30T05:30:52.772Z,101143.02
2019-04-30T05:33:26.354Z,101143.00
2019-04-30T05:35:59.876Z,101145.21
2019-04-30T05:38:33.350Z,101146.98
2019-04-30T05:41:09.201Z,101150.01
2019-04-30T05:43:42.731Z,101142.48
2019-04-30T05:46:16.382Z,101151.32
2019-04-30T05:48:50.068Z,101148.69
2019-04-30T05:51:23.599Z,101154.41
2019-04-30T05:53:59.112Z,101148.23
2019-04-30T05:56:32.469Z,101150.86
2019-04-30T05:59:05.999Z,101153.97
2019-04-30T06:01:39.671Z,101151.32
2019-04-30T06:04:13.338Z,101150.00
2019-04-30T06:06:48.670Z,101152.20
2019-04-30T06:09:38.538Z,101157.83
2019-04-30T06:12:31.392Z,101157.89
2019-04-30T06:15:09.044Z,101159.17
2019-04-30T06:18:00.914Z,101159.23
2019-04-30T06:20:29.022Z,101157.45
2019-04-30T06:23:02.545Z,101161.84
2019-04-30T06:25:52.911Z,101161.87
2019-04-30T06:28:12.133Z,101163.06
2019-04-30T06:30:45.795Z,101177.55
2019-04-30T06:33:19.447Z,101171.84
2019-04-30T06:35:53.621Z,101173.99
2019-04-30T06:38:29.060Z,101167.93
2019-04-30T06:41:03.418Z,101176.70
2019-04-30T06:43:38.666Z,101175.33
2019-04-30T06:46:12.433Z,101182.66
2019-04-30T06:48:48.663Z,101183.06
2019-04-30T06:51:21.549Z,101178.25
2019-04-30T06:53:54.998Z,101173.45
2019-04-30T06:56:28.973Z,101181.34
2019-04-30T06:59:02.664Z,101180.48
2019-04-30T07:01:36.211Z,101176.83
2019-04-30T07:04:10.480Z,101174.54
2019-04-30T07:06:45.270Z,101175.59
2019-04-30T07:09:51.417Z,101181.70
2019-04-30T07:12:22.933Z,101179.00
2019-04-30T07:14:49.452Z,101174.48
2019-04-30T07:17:23.223Z,101171.90
2019-04-30T07:19:57.007Z,101169.02
2019-04-30T07:22:39.588Z,101173.64
2019-04-30T07:25:09.389Z,101173.05
2019-04-30T07:27:42.545Z,101174.67
2019-04-30T07:30:16.118Z,101181.27
2019-04-30T07:32:49.693Z,101165.20
2019-04-30T07:35:23.365Z,101167.48
2019-04-30T07:38:00.638Z,101161.63
2019-04-30T07:40:32.305Z,101162.31
2019-04-30T07:43:05.929Z,101165.17
2019-04-30T07:45:39.902Z,101155.91
2019-04-30T07:48:13.445Z,101156.54
2019-04-30T07:50:51.477Z,101158.93
2019-04-30T07:53:22.474Z,101164.83
2019-04-30T07:55:56.006Z,101171.61
2019-04-30T07:58:29.950Z,101166.77
2019-04-30T08:01:03.644Z,101172.95
2019-04-30T08:03:50.042Z,101175.48
2019-04-30T08:06:22.951Z,101172.66
2019-04-30T08:08:59.845Z,101172.97
2019-04-30T08:11:34.502Z,101163.64
2019-04-30T08:14:07.305Z,101171.67
2019-04-30T08:16:40.818Z,101163.93
2019-04-30T08:19:14.295Z,101174.89
2019-04-30T08:21:48.587Z,101172.43
2019-04-30T08:24:22.450Z,101167.65
2019-04-30T08:26:56.024Z,101172.24
2019-04-30T08:29:29.563Z,101171.44
2019-04-30T08:32:02.878Z,101173.28
2019-04-30T08:34:36.427Z,101177.31
2019-04-30T08:37:17.073Z,101172.30
2019-04-30T08:39:45.231Z,101167.51
2019-04-30T08:42:28.961Z,101166.04
2019-04-30T08:44:54.013Z,101168.69
2019-04-30T08:47:29.152Z,101165.75
2019-04-30T08:50:03.407Z,101168.13
2019-04-30T08:52:39.307Z,101155.90
2019-04-30T08:55:16.537Z,101153.21
2019-04-30T08:57:49.850Z,101143.03
2019-04-30T09:00:23.191Z,101144.84
2019-04-30T09:02:56.773Z,101143.58
2019-04-30T09:05:35.236Z,101150.48
2019-04-30T09:08:10.641Z,101144.26
2019-04-30T09:10:44.260Z,101153.59
2019-04-30T09:13:19.213Z,101145.72
2019-04-30T09:15:52.966Z,101146.21
2019-04-30T09:18:29.033Z,101150.55
2019-04-30T09:21:06.223Z,101151.15
2019-04-30T09:23:44.680Z,101144.41
2019-04-30T09:26:12.829Z,101148.70
2019-04-30T09:28:46.435Z,101161.09
2019-04-30T09:31:20.026Z,101163.53
2019-04-30T09:33:53.485Z,101146.21
2019-04-30T09:36:29.076Z,101151.23
2019-04-30T09:39:02.368Z,101153.98
2019-04-30T09:41:35.855Z,101149.86
2019-04-30T09:44:09.989Z,101152.19
2019-04-30T09:46:43.664Z,101152.19
2019-04-30T09:49:19.330Z,101148.36
2019-04-30T09:51:52.728Z,101143.52
2019-04-30T09:54:26.176Z,101145.15
2019-04-30T09:56:59.612Z,101140.20
2019-04-30T09:59:33.022Z,101134.97
2019-04-30T10:02:09.218Z,101135.17
2019-04-30T10:04:43.082Z,101108.94
2019-04-30T10:07:16.799Z,101128.16
2019-04-30T10:09:51.109Z,101128.23
2019-04-30T10:12:24.653Z,101115.20
2019-04-30T10:14:59.266Z,101115.20
2019-04-30T10:17:34.754Z,101107.38
2019-04-30T10:20:10.339Z,101109.26
2019-04-30T10:22:43.893Z,101109.26
2019-04-30T10:25:17.540Z,101103.05
2019-04-30T10:27:51.107Z,101099.34
2019-04-30T10:30:29.213Z,101099.34
2019-04-30T10:33:03.159Z,101093.83
2019-04-30T10:35:38.522Z,101103.71
2019-04-30T10:38:12.132Z,101097.92
2019-04-30T10:40:45.609Z,101097.92
2019-04-30T10:43:19.797Z,101093.23
2019-04-30T10:45:53.298Z,101090.87
2019-04-30T10:48:26.812Z,101083.52
2019-04-30T10:51:00.537Z,101069.90
2019-04-30T10:53:34.012Z,101090.94
2019-04-30T10:56:09.602Z,101090.94
2019-04-30T10:58:43.013Z,101080.73
2019-04-30T11:01:16.613Z,101068.92
2019-04-30T11:03:50.254Z,101068.92
2019-04-30T11:06:23.953Z,101075.81
2019-04-30T11:08:57.469Z,101077.28
2019-04-30T11:11:30.941Z,101077.28
2019-04-30T11:14:04.679Z,101072.67
2019-04-30T11:16:38.031Z,101074.01
2019-04-30T11:19:11.758Z,101060.36
2019-04-30T11:21:45.656Z,101060.36
2019-04-30T11:24:19.688Z,101072.11
2019-04-30T11:26:54.516Z,101069.06
2019-04-30T11:30:03.318Z,101055.88
2019-04-30T11:32:40.674Z,101051.20
2019-04-30T11:35:14.957Z,101045.55
2019-04-30T11:37:49.002Z,101044.56
2019-04-30T11:40:34.034Z,101048.56
2019-04-30T11:43:04.136Z,101033.08
2019-04-30T11:45:56.188Z,101026.41
2019-04-30T11:48:29.837Z,101029.40
2019-04-30T11:51:03.507Z,101029.00
2019-04-30T11:53:38.947Z,101030.23
2019-04-30T11:56:12.638Z,101028.22
2019-04-30T11:58:46.353Z,101018.30
2019-04-30T12:01:27.295Z,101015.52
2019-04-30T12:04:00.745Z,101016.77
2019-04-30T12:06:34.353Z,101021.66
2019-04-30T12:09:12.796Z,101013.81
2019-04-30T12:11:50.518Z,101016.91
2019-04-30T12:14:23.114Z,101003.89
2019-04-30T12:16:56.757Z,101002.44
2019-04-30T12:19:30.226Z,101001.17
2019-04-30T12:22:03.600Z,100980.66
2019-04-30T12:24:38.830Z,100998.04
2019-04-30T12:27:12.698Z,100986.22
2019-04-30T12:29:46.497Z,100982.58
2019-04-30T12:32:21.365Z,100992.05
2019-04-30T12:34:58.363Z,100987.22
2019-04-30T12:37:32.078Z,100987.93
2019-04-30T12:40:09.526Z,100986.64
2019-04-30T12:42:44.194Z,100986.04
2019-04-30T12:45:19.455Z,100981.60
2019-04-30T12:47:57.618Z,100984.09
2019-04-30T12:50:45.150Z,100975.73
2019-04-30T12:53:37.546Z,100983.93
2019-04-30T12:56:27.149Z,100977.23
2019-04-30T12:58:57.406Z,100972.94
2019-04-30T13:01:33.923Z,100963.61
2019-04-30T13:04:09.776Z,100963.36
2019-04-30T13:06:44.144Z,100955.19
2019-04-30T13:09:20.209Z,100953.52
2019-04-30T13:11:54.301Z,100960.24
2019-04-30T13:14:30.150Z,100949.88
2019-04-30T13:17:03.716Z,100950.67
2019-04-30T13:19:37.312Z,100945.68
2019-04-30T13:22:11.378Z,100945.72
2019-04-30T13:24:44.961Z,100946.56
2019-04-30T13:27:19.611Z,100941.14
2019-04-30T13:30:01.595Z,100943.09
2019-04-30T13:32:36.694Z,100939.88
2019-04-30T13:35:10.866Z,100930.08
2019-04-30T13:38:00.995Z,100926.75
2019-04-30T13:40:39.151Z,100925.00
2019-04-30T13:43:14.318Z,100928.42
2019-04-30T13:45:48.707Z,100929.37
2019-04-30T13:48:23.094Z,100907.64
2019-04-30T13:50:56.774Z,100911.37
2019-04-30T13:53:30.751Z,100908.20
2019-04-30T13:56:04.584Z,100900.61
2019-04-30T13:58:38.271Z,100907.61
2019-04-30T14:01:11.852Z,100903.27
2019-04-30T14:04:02.229Z,100896.55
2019-04-30T14:06:40.192Z,100894.08
2019-04-30T14:09:30.268Z,100898.94
2019-04-30T14:12:03.899Z,100901.90
2019-04-30T14:14:39.437Z,100896.01
2019-04-30T14:17:12.884Z,100884.97
2019-04-30T14:19:46.430Z,100891.85
2019-04-30T14:22:19.957Z,100884.14
2019-04-30T14:24:53.579Z,100882.32
2019-04-30T14:27:27.114Z,100885.13
2019-04-30T14:30:01.236Z,100877.74
2019-04-30T14:32:34.782Z,100878.94
2019-04-30T14:35:09.226Z,100871.09
2019-04-30T14:37:42.956Z,100869.19
2019-04-30T14:40:20.286Z,100866.17
2019-04-30T14:43:02.159Z,100869.57
2019-04-30T14:45:57.165Z,100864.88
2019-04-30T14:48:35.486Z,100868.48
2019-04-30T14:51:40.228Z,100858.86
2019-04-30T14:54:17.319Z,100859.30
2019-04-30T14:56:55.804Z,100861.02
2019-04-30T14:59:49.111Z,100864.37
2019-04-30T15:02:29.443Z,100859.11
2019-04-30T15:05:40.551Z,100857.83
2019-04-30T15:08:05.784Z,100858.94
2019-04-30T15:10:41.419Z,100863.18
2019-04-30T15:13:21.678Z,100859.03
2019-04-30T15:16:02.196Z,100857.40
2019-04-30T15:19:11.926Z,100852.45
2019-04-30T15:21:46.765Z,100846.91
2019-04-30T15:31:05.941Z,100853.92
2019-04-30T15:33:41.554Z,100856.58
2019-04-30T15:36:15.502Z,100856.37
2019-04-30T15:39:19.535Z,100860.23
2019-04-30T15:42:05.301Z,100856.98
2019-04-30T15:44:43.268Z,100851.94
2019-04-30T15:47:28.825Z,100852.26
2019-04-30T15:50:02.382Z,100852.43
2019-04-30T15:52:35.880Z,100846.68
2019-04-30T15:55:12.127Z,100848.95
2019-04-30T15:57:49.490Z,100838.98
2019-04-30T16:00:23.192Z,100837.23
2019-04-30T16:03:00.137Z,100839.55
2019-04-30T16:05:44.259Z,100841.77
2019-04-30T16:08:22.154Z,100835.77
2019-04-30T16:11:10.497Z,100841.20
2019-04-30T16:13:49.523Z,100838.09
2019-04-30T16:16:23.666Z,100838.84
2019-04-30T16:18:58.803Z,100838.85
2019-04-30T16:21:32.250Z,100834.34
2019-04-30T16:24:05.967Z,100831.63
2019-04-30T16:26:49.303Z,100825.41
2019-04-30T16:29:14.783Z,100829.16
2019-04-30T16:31:49.475Z,100837.30
2019-04-30T16:34:23.346Z,100828.89
2019-04-30T16:36:56.815Z,100824.43
2019-04-30T16:39:30.219Z,100826.45
2019-04-30T16:42:03.812Z,100820.58
2019-04-30T16:44:37.298Z,100822.87
2019-04-30T16:47:16.041Z,100819.39
2019-04-30T16:49:45.997Z,100820.41
2019-04-30T16:52:19.581Z,100820.08
2019-04-30T16:54:53.275Z,100813.96
2019-04-30T16:57:30.117Z,100808.12
2019-04-30T17:00:02.702Z,100816.67
2019-04-30T17:02:39.287Z,100812.30
2019-04-30T17:05:14.605Z,100807.17
2019-04-30T17:07:52.858Z,100803.25
2019-04-30T17:10:30.999Z,100808.91
2019-04-30T17:13:09.336Z,100810.79
2019-04-30T17:15:44.536Z,100814.33
2019-04-30T17:18:19.062Z,100815.34
2019-04-30T17:20:52.678Z,100812.25
2019-04-30T17:23:26.193Z,100822.63
2019-04-30T17:25:59.926Z,100821.74
2019-04-30T17:28:33.411Z,100828.95
2019-04-30T17:31:06.916Z,100828.35
2019-04-30T17:33:40.497Z,100827.30
2019-04-30T17:36:13.893Z,100829.33
2019-04-30T17:38:47.431Z,100825.30
2019-04-30T17:41:20.882Z,100827.08
2019-04-30T17:43:54.312Z,100828.14
2019-04-30T17:46:28.541Z,100831.00
2019-04-30T17:49:01.969Z,100831.14
2019-04-30T17:51:35.459Z,100828.27
2019-04-30T17:54:18.240Z,100830.12
2019-04-30T17:56:51.707Z,100836.03
2019-04-30T17:59:25.146Z,100835.48
2019-04-30T18:02:00.326Z,100829.72
2019-04-30T18:04:33.891Z,100832.02
2019-04-30T18:07:09.855Z,100831.05
2019-04-30T18:09:42.814Z,100838.71
2019-04-30T18:12:16.437Z,100836.94
2019-04-30T18:14:49.932Z,100840.66
2019-04-30T18:17:25.052Z,100832.39
2019-04-30T18:20:00.367Z,100844.84
2019-04-30T18:22:51.712Z,100839.34
2019-04-30T18:25:26.819Z,100844.17
2019-04-30T18:28:06.550Z,100840.72
2019-04-30T18:30:41.708Z,100840.30
2019-04-30T18:33:15.240Z,100844.17
2019-04-30T18:35:48.793Z,100850.20
2019-04-30T18:38:22.299Z,100842.48
2019-04-30T18:40:55.744Z,100852.32
2019-04-30T18:43:29.352Z,100854.67
2019-04-30T18:46:02.969Z,100850.85
2019-04-30T18:48:36.521Z,100856.75
2019-04-30T18:51:29.871Z,100857.84
2019-04-30T18:53:47.002Z,100856.39
2019-04-30T18:56:20.695Z,100861.41
2019-04-30T18:58:54.212Z,100855.20
2019-04-30T19:01:27.761Z,100863.67
2019-04-30T19:04:01.319Z,100864.87
2019-04-30T19:06:34.828Z,100863.31
2019-04-30T19:09:29.642Z,100868.30
2019-04-30T19:12:08.537Z,100873.78
2019-04-30T19:14:45.240Z,100870.72
2019-04-30T19:17:36.403Z,100873.80
2019-04-30T19:20:14.396Z,100879.17
2019-04-30T19:22:47.787Z,100880.44
2019-04-30T19:25:21.438Z,100882.89
2019-04-30T19:27:55.141Z,100882.62
2019-04-30T19:30:29.296Z,100886.48
2019-04-30T19:33:04.702Z,100883.95
2019-04-30T19:35:38.262Z,100886.22
2019-04-30T19:38:12.831Z,100896.09
2019-04-30T19:40:46.392Z,100898.67
2019-04-30T19:43:20.155Z,100900.66
2019-04-30T19:45:53.700Z,100901.66
2019-04-30T19:48:27.502Z,100904.15
2019-04-30T19:51:01.381Z,100904.38
2019-04-30T19:53:35.365Z,100907.77
2019-04-30T19:56:09.085Z,100915.48
2019-04-30T19:58:54.366Z,100919.26
2019-04-30T20:01:18.021Z,100920.79
2019-04-30T20:03:51.697Z,100921.58
2019-04-30T20:06:25.358Z,100927.44
2019-04-30T20:09:00.716Z,100922.70
2019-04-30T20:11:35.187Z,100924.77
2019-04-30T20:14:10.469Z,100934.72
2019-04-30T20:16:44.102Z,100928.61
2019-04-30T20:19:17.656Z,100930.16
2019-04-30T20:21:53.903Z,100925.95
2019-04-30T20:24:29.583Z,100931.08
2019-04-30T20:27:07.065Z,100933.35
2019-04-30T20:29:40.797Z,100933.89
2019-04-30T20:32:14.132Z,100930.67
2019-04-30T20:34:48.931Z,100928.61
2019-04-30T20:37:22.767Z,100927.50
2019-04-30T20:40:16.220Z,100927.29
2019-04-30T20:42:50.209Z,100927.48
2019-04-30T20:45:24.223Z,100927.22
2019-04-30T20:47:59.227Z,100921.16
2019-04-30T20:50:32.889Z,100922.97
2019-04-30T20:53:08.720Z,100924.23
2019-04-30T20:55:41.888Z,100922.22
2019-04-30T20:58:15.457Z,100927.53
2019-04-30T21:01:00.479Z,100917.21
2019-04-30T21:03:24.808Z,100918.97
2019-04-30T21:06:00.384Z,100916.98
2019-04-30T21:08:33.681Z,100921.05
2019-04-30T21:11:09.279Z,100915.44
2019-04-30T21:13:42.684Z,100915.48
2019-04-30T21:16:16.243Z,100912.69
2019-04-30T21:18:49.794Z,100912.69
2019-04-30T21:21:23.431Z,100914.84
2019-04-30T21:23:57.033Z,100912.33
2019-04-30T21:26:30.581Z,100913.33
2019-04-30T21:29:13.694Z,100913.00
2019-04-30T21:31:42.921Z,100909.48
2019-04-30T21:34:19.587Z,100911.80
2019-04-30T21:36:53.484Z,100910.92
2019-04-30T21:39:27.100Z,100913.19
2019-04-30T21:42:00.629Z,100912.27
2019-04-30T21:44:34.213Z,100911.39
2019-04-30T21:47:07.810Z,100910.52
2019-04-30T21:49:41.376Z,100916.27
2019-04-30T21:52:14.912Z,100912.78
2019-04-30T21:54:48.714Z,100906.24
2019-04-30T21:57:22.150Z,100908.33
2019-04-30T21:59:55.709Z,100913.59
2019-04-30T22:02:29.545Z,100913.55
2019-04-30T22:05:03.353Z,100915.83
2019-04-30T22:07:36.905Z,100914.75
2019-04-30T22:10:10.630Z,100908.70
2019-04-30T22:12:44.172Z,100911.01
2019-04-30T22:15:17.891Z,100911.56
2019-04-30T22:17:51.496Z,100907.73
2019-04-30T22:20:25.073Z,100910.12
2019-04-30T22:22:58.574Z,100911.19
2019-04-30T22:25:32.221Z,100914.00
2019-04-30T22:28:05.859Z,100912.45
2019-04-30T22:30:39.493Z,100910.50
2019-04-30T22:33:13.111Z,100910.34
2019-04-30T22:35:54.160Z,100910.92
2019-04-30T22:38:44.762Z,100915.27
2019-04-30T22:41:19.917Z,100913.81
2019-04-30T22:43:53.455Z,100910.20
2019-04-30T22:46:27.050Z,100913.45
2019-04-30T22:49:00.554Z,100913.55
2019-04-30T22:51:34.070Z,100912.73
2019-04-30T22:54:07.653Z,100913.70
2019-04-30T22:56:41.228Z,100917.83
2019-04-30T22:59:14.781Z,100908.80
2019-04-30T23:01:52.820Z,100911.11
2019-04-30T23:04:28.064Z,100912.93
2019-04-30T23:07:01.575Z,100909.05
2019-04-30T23:09:35.181Z,100910.84
2019-04-30T23:12:08.859Z,100909.98
2019-04-30T23:14:42.317Z,100910.89
2019-04-30T23:17:15.958Z,100903.96
2019-04-30T23:19:49.764Z,100904.00
2019-04-30T23:22:23.350Z,100904.80
2019-04-30T23:24:56.904Z,100903.03
2019-04-30T23:27:30.628Z,100904.77
2019-04-30T23:30:05.347Z,100902.97
2019-04-30T23:32:38.910Z,100892.56
2019-04-30T23:35:12.634Z,100899.02
2019-04-30T23:37:46.188Z,100891.50
2019-04-30T23:40:28.389Z,100895.33
2019-04-30T23:43:01.937Z,100893.98
2019-04-30T23:45:35.550Z,100886.16
2019-04-30T23:48:09.055Z,100888.73
2019-04-30T23:50:42.738Z,100887.52
2019-04-30T23:53:16.398Z,100883.72
2019-04-30T23:55:49.949Z,100889.52
2019-04-30T23:58:23.501Z,100879.95
